Ubc Baton Rouge — P3BC8 — position and weather

sailwx.info

Track history (hours):
 
Tides and Currents Weather Stations Pressure Air Temp Water Temp Dewpoint Dewpoint Depression Visibility Wind Speed Wind Dir Waves Ship Positions

Ubc Baton Rouge

Last reported at 2018-Jan-08 09:10 UTC. Time now 2018-Jan-21 16:36 UTC.
Position N 27°43' W 090°29'.
Warning: this ship's position is 13 days out of date.

Length 154 m; draft 6 m.

Type: Cargo ship. MMSI: 212643000.

Date/timePositionNaut miles runAvg speedWind from/ knotsBaromVisibWave heightAir tempDewpointWater temp
2018-Jan-08 09:10N 27°43' W 090°29'212.3
2018-Jan-08 09:00N 27°42' W 090°31'612.0
2018-Jan-08 08:29N 27°38' W 090°36'611.9
2018-Jan-08 08:00N 27°34' W 090°41'611.3
2018-Jan-08 07:29N 27°31' W 090°46'511.1
2018-Jan-08 07:00N 27°29' W 090°52'610.9
2018-Jan-08 06:29N 27°26' W 090°58'611.2
2018-Jan-08 05:58N 27°24' W 091°04'510.9
2018-Jan-08 05:30N 27°22' W 091°09'  
Track history (hours):
 
Tides and Currents Weather Stations Pressure Air Temp Water Temp Dewpoint Dewpoint Depression Visibility Wind Speed Wind Dir Waves Ship Positions

Ubc Baton Rouge

Last reported at 2018-Jan-08 09:10 UTC. Time now 2018-Jan-21 16:36 UTC.
Position N 27°43' W 090°29'.
Warning: this ship's position is 13 days out of date.

Length 154 m; draft 6 m.

Type: Cargo ship. MMSI: 212643000.

Date/timePositionNaut miles runAvg speedWind from/ knotsBaromVisibWave heightAir tempDewpointWater temp
2018-Jan-08 09:10N 27°43' W 090°29'212.3
2018-Jan-08 09:00N 27°42' W 090°31'612.0
2018-Jan-08 08:29N 27°38' W 090°36'611.9
2018-Jan-08 08:00N 27°34' W 090°41'611.3
2018-Jan-08 07:29N 27°31' W 090°46'511.1
2018-Jan-08 07:00N 27°29' W 090°52'610.9
2018-Jan-08 06:29N 27°26' W 090°58'611.2
2018-Jan-08 05:58N 27°24' W 091°04'510.9
2018-Jan-08 05:30N 27°22' W 091°09'  

Dump ship's entire track history